Time;durP1;ratioP1;P1;durP2;ratioP2;P2;SDS_P1;SDS_P2;PMS_P1;PMS_P2;Temp;Humidity;BMP_temperature;BMP_pressure;BME280_temperature;BME280_humidity;BME280_pressure;Samples;Min_cycle;Max_cycle;Signal;HPM_P1;HPM_P2
2021/08/28 00:00:01;;;;;;;3.30;1.13;;;16.20;92.10;;;;;;5074594;28;20050;-62
2021/08/28 00:02:27;;;;;;;5.22;1.20;;;16.20;92.20;;;;;;5074827;28;20021;-62
2021/08/28 00:04:52;;;;;;;3.35;1.23;;;16.20;92.20;;;;;;5074659;28;20024;-62
2021/08/28 00:07:18;;;;;;;2.88;1.13;;;16.20;92.30;;;;;;5056654;28;20107;-62
2021/08/28 00:09:44;;;;;;;3.15;1.23;;;16.20;92.30;;;;;;5074389;28;20048;-62
2021/08/28 00:12:09;;;;;;;4.97;1.40;;;16.10;92.30;;;;;;5053822;28;20036;-62
2021/08/28 00:14:35;;;;;;;4.18;1.48;;;16.20;92.40;;;;;;5056696;28;20019;-62
2021/08/28 00:17:00;;;;;;;2.30;1.58;;;16.20;92.50;;;;;;5056550;28;20012;-62
2021/08/28 00:19:26;;;;;;;3.92;1.20;;;16.20;92.50;;;;;;5074455;28;20012;-62
2021/08/28 00:21:52;;;;;;;2.75;1.30;;;16.20;92.60;;;;;;5056020;28;20035;-62
2021/08/28 00:24:17;;;;;;;2.70;1.08;;;16.20;92.60;;;;;;5073205;28;20036;-62
2021/08/28 00:26:43;;;;;;;3.05;1.30;;;16.20;92.70;;;;;;5074179;28;20024;-62
2021/08/28 00:29:08;;;;;;;3.22;1.00;;;16.20;92.70;;;;;;5074313;28;20008;-62
2021/08/28 00:31:34;;;;;;;2.53;0.82;;;16.20;92.80;;;;;;5056380;28;20039;-62
2021/08/28 00:33:59;;;;;;;3.38;1.02;;;16.20;92.80;;;;;;5055853;28;20027;-62
2021/08/28 00:36:25;;;;;;;3.10;1.15;;;16.20;92.90;;;;;;5074585;28;20129;-62
2021/08/28 00:38:51;;;;;;;3.72;1.05;;;16.20;92.90;;;;;;5055835;28;20028;-62
2021/08/28 00:41:16;;;;;;;3.63;1.27;;;16.10;93.00;;;;;;5073988;28;20146;-62
2021/08/28 00:43:42;;;;;;;3.25;1.02;;;16.10;93.00;;;;;;5074056;28;20395;-63
2021/08/28 00:46:08;;;;;;;3.58;1.45;;;16.10;93.10;;;;;;5074293;28;20555;-62
2021/08/28 00:48:33;;;;;;;5.22;1.10;;;16.00;93.10;;;;;;5063713;28;20062;-62
2021/08/28 00:50:59;;;;;;;2.92;1.00;;;16.00;93.20;;;;;;5074096;28;20020;-62
2021/08/28 00:53:24;;;;;;;2.97;1.25;;;16.00;93.20;;;;;;5073043;28;20064;-62
2021/08/28 00:55:52;;;;;;;7.53;1.23;;;16.00;93.30;;;;;;5073888;28;20438;-62
2021/08/28 00:58:19;;;;;;;2.70;1.10;;;16.00;93.30;;;;;;5073743;28;20077;-62
2021/08/28 01:00:54;;;;;;;2.90;1.00;;;16.00;93.30;;;;;;5072724;28;20028;-62
2021/08/28 01:03:31;;;;;;;4.45;1.20;;;16.00;93.40;;;;;;5072036;28;20078;-62
2021/08/28 01:06:18;;;;;;;2.45;1.00;;;16.00;93.50;;;;;;5072547;28;20016;-62
2021/08/28 01:09:04;;;;;;;6.15;1.10;;;16.00;93.50;;;;;;5071769;28;20039;-62
2021/08/28 01:11:35;;;;;;;2.20;0.80;;;16.00;93.50;;;;;;5072569;28;20021;-62
2021/08/28 01:14:07;;;;;;;3.60;1.15;;;16.00;93.60;;;;;;5072041;28;20021;-62
2021/08/28 01:16:34;;;;;;;2.90;1.23;;;16.00;93.70;;;;;;5072138;28;20102;-62
2021/08/28 01:19:00;;;;;;;2.90;1.20;;;16.00;93.80;;;;;;5067248;28;20411;-62
2021/08/28 01:21:32;;;;;;;2.30;1.00;;;16.00;93.80;;;;;;5072346;28;20020;-62
2021/08/28 01:24:04;;;;;;;4.22;1.30;;;16.10;93.90;;;;;;5071669;28;20019;-62
2021/08/28 01:26:38;;;;;;;3.97;1.00;;;16.00;93.90;;;;;;5073270;28;20032;-62
2021/08/28 01:29:18;;;;;;;3.45;1.10;;;16.00;94.00;;;;;;5072692;28;20095;-62
2021/08/28 01:31:46;;;;;;;3.10;1.30;;;16.10;94.00;;;;;;5054939;28;20435;-62
2021/08/28 01:34:13;;;;;;;2.27;0.87;;;16.00;94.10;;;;;;5054981;28;20052;-62
2021/08/28 01:36:39;;;;;;;5.15;1.05;;;16.00;94.10;;;;;;5052030;28;20021;-62
2021/08/28 01:39:06;;;;;;;4.93;1.20;;;16.10;94.20;;;;;;5072561;28;20032;-62
2021/08/28 01:41:31;;;;;;;1.90;0.80;;;16.10;94.30;;;;;;5072876;28;20017;-62
2021/08/28 01:44:00;;;;;;;2.97;1.33;;;16.10;94.30;;;;;;5072770;28;20017;-62
2021/08/28 01:46:26;;;;;;;3.63;1.10;;;16.10;94.40;;;;;;5054745;28;20122;-62
2021/08/28 01:48:51;;;;;;;2.75;0.85;;;16.10;94.60;;;;;;5072831;28;20059;-62
2021/08/28 01:51:17;;;;;;;4.45;1.10;;;16.10;94.50;;;;;;5054718;28;20484;-62
2021/08/28 01:53:43;;;;;;;5.13;1.40;;;16.10;94.50;;;;;;5053171;28;20521;-62
2021/08/28 01:56:10;;;;;;;4.47;0.95;;;16.20;94.60;;;;;;5072582;28;20109;-62
2021/08/28 01:58:36;;;;;;;6.10;2.05;;;16.20;94.70;;;;;;5051975;28;20103;-62
2021/08/28 02:01:02;;;;;;;4.47;1.60;;;16.20;94.70;;;;;;5054545;28;20602;-62
2021/08/28 02:03:27;;;;;;;3.90;1.13;;;16.20;94.80;;;;;;5049130;28;20559;-62
2021/08/28 02:06:01;;;;;;;3.58;1.13;;;16.20;94.80;;;;;;5072504;28;20101;-62
2021/08/28 02:08:36;;;;;;;4.03;1.38;;;16.20;94.90;;;;;;5072178;28;20018;-62
2021/08/28 02:11:10;;;;;;;3.70;0.98;;;16.20;94.90;;;;;;5054325;28;20494;-62
2021/08/28 02:13:47;;;;;;;5.20;1.42;;;16.20;95.00;;;;;;5054284;28;20025;-62
2021/08/28 02:16:17;;;;;;;5.68;1.08;;;16.30;95.00;;;;;;5054454;28;20020;-62
2021/08/28 02:18:50;;;;;;;4.07;1.23;;;16.30;95.10;;;;;;5072379;28;20055;-63
2021/08/28 02:21:17;;;;;;;4.40;1.20;;;16.20;95.10;;;;;;5038363;28;20021;-62
2021/08/28 02:23:53;;;;;;;4.00;1.40;;;16.30;95.20;;;;;;5053998;28;20017;-62
2021/08/28 02:26:22;;;;;;;2.72;1.02;;;16.30;95.30;;;;;;5054118;28;20029;-62
2021/08/28 02:28:54;;;;;;;5.05;1.65;;;16.30;95.30;;;;;;5071975;28;20365;-62
2021/08/28 02:31:23;;;;;;;3.95;1.55;;;16.30;95.40;;;;;;5054059;28;20467;-62
2021/08/28 02:33:50;;;;;;;;;;;16.30;95.50;;;;;;5054311;28;20032;-63
2021/08/28 02:36:17;;;;;;;4.05;1.50;;;16.20;95.40;;;;;;5071908;28;19988;-62
2021/08/28 02:38:45;;;;;;;3.83;1.60;;;16.20;95.60;;;;;;5071952;28;20037;-62
2021/08/28 02:41:11;;;;;;;5.95;1.30;;;16.20;95.70;;;;;;5071594;28;20017;-62
2021/08/28 02:43:37;;;;;;;3.20;1.30;;;16.20;95.70;;;;;;5071787;28;20017;-62
2021/08/28 02:46:04;;;;;;;2.72;1.30;;;16.20;95.70;;;;;;5053841;28;20027;-62
2021/08/28 02:48:33;;;;;;;5.72;1.55;;;16.30;95.80;;;;;;5068745;28;20441;-62
2021/08/28 02:51:01;;;;;;;2.97;1.45;;;16.30;95.80;;;;;;5053776;28;20052;-62
2021/08/28 02:53:30;;;;;;;4.28;1.27;;;16.30;95.90;;;;;;5071311;28;20029;-62
2021/08/28 02:55:57;;;;;;;5.35;1.60;;;16.30;95.90;;;;;;5071754;28;20021;-63
2021/08/28 02:58:23;;;;;;;4.07;1.15;;;16.30;96.00;;;;;;5071607;28;20012;-62
2021/08/28 03:00:49;;;;;;;5.57;1.55;;;16.30;96.00;;;;;;5053669;28;20063;-62
2021/08/28 03:03:16;;;;;;;3.70;1.27;;;16.30;96.10;;;;;;5071602;28;20016;-62
2021/08/28 03:05:46;;;;;;;4.07;1.27;;;16.30;96.10;;;;;;5071701;28;20468;-62
2021/08/28 03:08:14;;;;;;;2.83;1.20;;;16.20;96.10;;;;;;5053995;28;20032;-62
2021/08/28 03:10:43;;;;;;;3.45;1.33;;;16.30;96.20;;;;;;5068934;28;20046;-62
2021/08/28 03:13:09;;;;;;;3.47;1.35;;;16.30;96.30;;;;;;5071479;28;20020;-62
2021/08/28 03:15:36;;;;;;;3.50;1.60;;;16.20;96.30;;;;;;5071716;28;20379;-62
2021/08/28 03:18:02;;;;;;;4.53;1.33;;;16.20;96.40;;;;;;5053641;28;20027;-62
2021/08/28 03:20:28;;;;;;;5.40;2.25;;;16.20;96.50;;;;;;5053398;28;20021;-62
2021/08/28 03:22:54;;;;;;;5.25;1.23;;;16.30;96.60;;;;;;5071445;28;20075;-62
2021/08/28 03:25:56;;;;;;;3.67;1.60;;;16.20;96.60;;;;;;5053228;28;20021;-62
2021/08/28 03:28:22;;;;;;;4.32;1.63;;;16.30;96.60;;;;;;5050776;28;20526;-62
2021/08/28 03:30:49;;;;;;;4.63;1.70;;;16.20;96.80;;;;;;5071543;28;20021;-62
2021/08/28 03:33:16;;;;;;;5.63;1.70;;;16.20;96.90;;;;;;5071089;28;20031;-62
2021/08/28 03:35:44;;;;;;;4.82;1.98;;;16.20;96.90;;;;;;5071171;28;20082;-62
2021/08/28 03:38:10;;;;;;;5.82;1.88;;;16.20;97.00;;;;;;5068730;28;20036;-62
2021/08/28 03:40:37;;;;;;;5.53;2.03;;;16.20;97.10;;;;;;5071378;28;20105;-62
2021/08/28 03:43:03;;;;;;;3.90;1.95;;;16.20;97.20;;;;;;5070997;28;20017;-62
2021/08/28 03:45:29;;;;;;;3.85;1.55;;;16.30;97.30;;;;;;5071430;28;20099;-62
2021/08/28 03:47:55;;;;;;;4.70;1.70;;;16.30;97.30;;;;;;5071242;28;20433;-62
2021/08/28 03:50:21;;;;;;;5.72;1.83;;;16.30;97.40;;;;;;5053167;28;20021;-62
2021/08/28 03:52:47;;;;;;;4.30;2.00;;;16.30;97.40;;;;;;5070864;28;20029;-62
2021/08/28 03:55:12;;;;;;;5.72;2.03;;;16.30;97.50;;;;;;5068706;28;20052;-62
2021/08/28 03:57:38;;;;;;;5.60;1.88;;;16.30;97.50;;;;;;5071079;28;20031;-62
2021/08/28 04:00:05;;;;;;;3.75;1.85;;;16.30;97.60;;;;;;5055936;28;20090;-62
2021/08/28 04:02:31;;;;;;;4.22;1.90;;;16.30;97.90;;;;;;5068666;28;20100;-62
2021/08/28 04:04:56;;;;;;;4.13;2.08;;;16.30;97.70;;;;;;5056703;28;20066;-62
2021/08/28 04:07:23;;;;;;;3.88;1.80;;;16.30;97.80;;;;;;5074866;28;20088;-62
2021/08/28 04:09:48;;;;;;;5.90;1.85;;;16.30;97.80;;;;;;5056711;28;20104;-62
2021/08/28 04:12:14;;;;;;;4.40;1.45;;;16.30;97.90;;;;;;5053901;28;20443;-62
2021/08/28 04:14:39;;;;;;;4.30;1.80;;;16.30;97.90;;;;;;5056775;28;20039;-62
2021/08/28 04:17:05;;;;;;;6.28;1.98;;;16.30;97.90;;;;;;5072489;28;20040;-62
2021/08/28 04:19:30;;;;;;;5.20;1.83;;;16.30;98.00;;;;;;5074563;28;20601;-62
2021/08/28 04:21:56;;;;;;;6.85;2.53;;;16.30;98.00;;;;;;5056335;28;20056;-62
2021/08/28 04:24:21;;;;;;;4.25;2.20;;;16.30;98.10;;;;;;5074501;28;20028;-62
2021/08/28 04:26:47;;;;;;;5.88;2.25;;;16.30;98.10;;;;;;5074101;28;20072;-62
2021/08/28 04:29:13;;;;;;;4.32;1.88;;;16.30;98.10;;;;;;5056365;28;20464;-62
2021/08/28 04:31:38;;;;;;;3.45;1.60;;;16.40;98.20;;;;;;5056366;28;20036;-62
2021/08/28 04:34:04;;;;;;;4.72;1.65;;;16.30;98.10;;;;;;5073899;28;20079;-62
2021/08/28 04:36:29;;;;;;;3.70;1.40;;;16.30;98.10;;;;;;5071554;28;20104;-62
2021/08/28 04:38:55;;;;;;;3.95;1.92;;;16.30;98.10;;;;;;5056250;28;20384;-62
2021/08/28 04:41:20;;;;;;;3.88;1.90;;;16.40;98.10;;;;;;5073994;28;20024;-62
2021/08/28 04:43:46;;;;;;;6.03;2.03;;;16.30;98.10;;;;;;5073782;28;20376;-62
2021/08/28 04:46:12;;;;;;;3.08;1.70;;;16.40;98.20;;;;;;5056347;28;20025;-62
2021/08/28 04:48:37;;;;;;;7.30;3.33;;;16.30;98.20;;;;;;5056266;28;20028;-62
2021/08/28 04:51:03;;;;;;;3.20;1.90;;;16.40;98.20;;;;;;5073787;28;20035;-62
2021/08/28 04:53:29;;;;;;;5.90;1.95;;;16.30;98.20;;;;;;5055373;28;20127;-62
2021/08/28 04:55:54;;;;;;;3.33;1.88;;;16.30;98.30;;;;;;5073933;28;20109;-62
2021/08/28 04:58:20;;;;;;;6.07;2.05;;;16.30;98.40;;;;;;5055722;28;20077;-62
2021/08/28 05:00:45;;;;;;;3.28;2.00;;;16.30;98.50;;;;;;5074279;28;20025;-62
2021/08/28 05:03:11;;;;;;;4.30;2.50;;;16.30;98.50;;;;;;5074179;28;20020;-62
2021/08/28 05:05:37;;;;;;;4.45;2.30;;;16.30;98.50;;;;;;5055841;28;20473;-62
2021/08/28 05:08:02;;;;;;;5.80;2.33;;;16.30;98.60;;;;;;5074274;28;20103;-62
2021/08/28 05:10:28;;;;;;;5.65;2.58;;;16.30;98.70;;;;;;5072958;28;20696;-62
2021/08/28 05:12:53;;;;;;;6.20;2.80;;;16.30;98.80;;;;;;5074083;28;20454;-62
2021/08/28 05:15:19;;;;;;;6.43;3.08;;;16.30;98.90;;;;;;5056464;28;20033;-62
2021/08/28 05:17:45;;;;;;;6.97;2.47;;;16.30;99.00;;;;;;5074128;28;20051;-62
2021/08/28 05:20:10;;;;;;;6.55;2.70;;;16.30;99.10;;;;;;5074140;28;20024;-62
2021/08/28 05:22:36;;;;;;;3.95;1.98;;;16.30;99.10;;;;;;5073941;28;20077;-62
2021/08/28 05:25:02;;;;;;;4.60;2.80;;;16.30;99.00;;;;;;5056023;28;20412;-62
2021/08/28 05:27:28;;;;;;;5.25;1.90;;;16.30;99.00;;;;;;5073706;28;20100;-62
2021/08/28 05:29:54;;;;;;;4.13;1.85;;;16.30;99.00;;;;;;5056107;28;20056;-62
2021/08/28 05:32:20;;;;;;;4.20;2.13;;;16.30;99.00;;;;;;5074175;28;20031;-62
2021/08/28 05:34:45;;;;;;;4.82;2.28;;;16.30;99.00;;;;;;5073989;28;20028;-62
2021/08/28 05:37:11;;;;;;;3.72;1.80;;;16.30;99.00;;;;;;5055847;28;20115;-62
2021/08/28 05:39:37;;;;;;;4.18;2.28;;;16.40;99.00;;;;;;5055995;28;20028;-62
2021/08/28 05:42:02;;;;;;;4.35;1.92;;;16.40;99.00;;;;;;5073633;28;20028;-62
2021/08/28 05:44:28;;;;;;;3.80;1.75;;;16.40;99.00;;;;;;5055645;28;20024;-62
2021/08/28 05:46:53;;;;;;;3.17;1.90;;;16.40;99.00;;;;;;5073467;28;20020;-62
2021/08/28 05:49:19;;;;;;;4.70;1.73;;;16.40;98.90;;;;;;5073313;28;20028;-62
2021/08/28 05:51:44;;;;;;;5.32;1.77;;;16.50;99.20;;;;;;5073255;28;20025;-62
2021/08/28 05:54:10;;;;;;;4.68;1.98;;;16.50;98.90;;;;;;5072867;28;20041;-62
2021/08/28 05:56:36;;;;;;;6.00;2.30;;;16.50;98.90;;;;;;5073178;28;20021;-62
2021/08/28 05:59:01;;;;;;;3.00;1.70;;;16.50;98.80;;;;;;5073246;28;20103;-62
2021/08/28 06:01:27;;;;;;;2.95;1.73;;;16.60;98.80;;;;;;5055519;28;20048;-62
2021/08/28 06:03:52;;;;;;;4.80;1.98;;;16.60;98.80;;;;;;5054543;28;20099;-62
2021/08/28 06:06:18;;;;;;;3.10;2.28;;;16.60;98.80;;;;;;5073042;28;20021;-62
2021/08/28 06:08:43;;;;;;;3.15;1.88;;;16.60;98.70;;;;;;5055455;28;20548;-62
2021/08/28 06:11:09;;;;;;;5.28;2.25;;;16.60;98.70;;;;;;5072813;28;20507;-62
2021/08/28 06:13:34;;;;;;;5.10;2.38;;;16.70;98.70;;;;;;5053989;28;20036;-62
2021/08/28 06:16:00;;;;;;;4.95;2.40;;;16.70;98.70;;;;;;5071897;28;20036;-62
2021/08/28 06:18:25;;;;;;;4.85;2.03;;;16.70;98.80;;;;;;5071768;28;20036;-62
2021/08/28 06:20:51;;;;;;;6.93;4.15;;;16.70;98.80;;;;;;5054770;28;20529;-62
2021/08/28 06:23:16;;;;;;;6.18;2.80;;;16.70;98.80;;;;;;5071456;28;20051;-62
2021/08/28 06:25:42;;;;;;;4.10;2.25;;;16.80;98.80;;;;;;5072660;28;20020;-62
2021/08/28 06:28:08;;;;;;;6.47;2.03;;;16.80;98.70;;;;;;5071154;28;20392;-62
2021/08/28 06:30:33;;;;;;;3.38;2.28;;;16.80;98.70;;;;;;5072431;28;20029;-62
2021/08/28 06:32:59;;;;;;;3.58;2.20;;;16.90;98.70;;;;;;5054054;28;20028;-62
2021/08/28 06:35:24;;;;;;;7.47;3.42;;;16.90;98.60;;;;;;5072428;28;20029;-62
2021/08/28 06:38:00;;;;;;;4.10;2.85;;;17.00;98.70;;;;;;5072373;28;20032;-62
2021/08/28 06:40:47;;;;;;;5.70;2.67;;;17.00;98.70;;;;;;5070858;28;20031;-62
2021/08/28 06:43:13;;;;;;;8.60;3.45;;;17.00;98.60;;;;;;5072077;28;20055;-62
2021/08/28 06:45:38;;;;;;;5.60;3.13;;;17.00;98.80;;;;;;5054211;28;20041;-62
2021/08/28 06:48:04;;;;;;;6.30;3.33;;;17.00;98.80;;;;;;5072126;28;20028;-62
2021/08/28 06:50:29;;;;;;;7.68;3.30;;;17.00;98.90;;;;;;5072258;28;20052;-62
2021/08/28 06:52:55;;;;;;;7.82;3.08;;;17.00;98.90;;;;;;5069435;28;20078;-62
2021/08/28 06:55:20;;;;;;;7.15;3.33;;;17.00;99.00;;;;;;5070846;28;20040;-62
2021/08/28 06:57:46;;;;;;;6.22;3.40;;;17.00;99.00;;;;;;5072008;28;20031;-62
2021/08/28 07:00:13;;;;;;;4.70;2.70;;;17.00;99.00;;;;;;5072028;28;20459;-63
2021/08/28 07:02:40;;;;;;;5.97;3.28;;;17.00;99.00;;;;;;5054698;28;20026;-62
2021/08/28 07:05:06;;;;;;;8.93;3.35;;;17.00;99.00;;;;;;5072585;28;20025;-62
2021/08/28 07:07:32;;;;;;;7.68;3.25;;;17.00;99.00;;;;;;5072403;28;20484;-62
2021/08/28 07:09:58;;;;;;;5.65;3.13;;;17.10;99.10;;;;;;5072569;28;20099;-62
2021/08/28 07:12:23;;;;;;;5.97;2.97;;;17.10;99.00;;;;;;5053945;28;20024;-62
2021/08/28 07:14:49;;;;;;;5.97;3.20;;;17.10;99.00;;;;;;5054487;28;20024;-62
2021/08/28 07:17:14;;;;;;;12.57;4.03;;;17.10;98.90;;;;;;5072176;28;20082;-62
2021/08/28 07:19:40;;;;;;;5.95;2.88;;;17.10;98.90;;;;;;5072514;28;20036;-62
2021/08/28 07:22:05;;;;;;;6.72;3.35;;;17.10;99.00;;;;;;5072398;28;20033;-62
2021/08/28 07:24:31;;;;;;;4.80;2.83;;;17.10;99.00;;;;;;5070670;28;20025;-62
2021/08/28 07:26:56;;;;;;;6.32;3.00;;;17.20;99.00;;;;;;5053296;28;20066;-62
2021/08/28 07:29:22;;;;;;;8.77;3.42;;;17.20;99.00;;;;;;5069801;28;20396;-62
2021/08/28 07:31:47;;;;;;;6.45;3.20;;;17.20;99.00;;;;;;5053818;28;20032;-62
2021/08/28 07:34:13;;;;;;;5.05;2.70;;;17.20;99.00;;;;;;5073584;28;20032;-62
2021/08/28 07:36:38;;;;;;;4.30;3.25;;;17.20;99.00;;;;;;5074827;28;20031;-63
2021/08/28 07:39:04;;;;;;;6.30;3.38;;;17.30;99.20;;;;;;5057996;28;20111;-62
2021/08/28 07:41:31;;;;;;;6.53;2.83;;;17.30;98.90;;;;;;5075881;28;20052;-62
2021/08/28 07:43:57;;;;;;;8.93;3.70;;;17.40;98.90;;;;;;5075798;28;20024;-62
2021/08/28 07:46:22;;;;;;;4.93;3.03;;;17.40;98.80;;;;;;5057755;28;20070;-63
2021/08/28 07:48:48;;;;;;;6.82;3.92;;;17.50;98.70;;;;;;5057317;28;20035;-62
2021/08/28 07:51:54;;;;;;;5.75;3.38;;;17.60;98.60;;;;;;5075242;28;20029;-62
2021/08/28 07:54:20;;;;;;;6.82;3.38;;;17.70;98.40;;;;;;5070943;28;20058;-62
2021/08/28 07:56:45;;;;;;;6.20;3.65;;;17.70;98.30;;;;;;5057765;28;20384;-62
2021/08/28 07:59:11;;;;;;;7.88;3.53;;;17.70;98.20;;;;;;5075141;28;20024;-62
2021/08/28 08:01:36;;;;;;;4.78;2.95;;;17.70;98.20;;;;;;5075498;28;20081;-63
2021/08/28 08:04:02;;;;;;;7.20;3.63;;;17.80;98.10;;;;;;5057652;28;20488;-62
2021/08/28 08:06:28;;;;;;;7.70;3.30;;;17.90;98.00;;;;;;5057504;28;20478;-62
2021/08/28 08:08:53;;;;;;;7.47;3.35;;;18.00;97.90;;;;;;5074972;28;20032;-62
2021/08/28 08:11:18;;;;;;;6.93;3.20;;;18.00;97.70;;;;;;5074979;28;20169;-62
2021/08/28 08:13:44;;;;;;;7.97;3.45;;;18.10;97.60;;;;;;5074843;28;20028;-62
2021/08/28 08:16:11;;;;;;;6.55;2.97;;;18.20;97.50;;;;;;5074908;28;20037;-63
2021/08/28 08:18:36;;;;;;;7.00;3.35;;;18.30;97.20;;;;;;5074602;28;20126;-62
2021/08/28 08:21:23;;;;;;;4.45;2.90;;;18.50;97.00;;;;;;5056792;28;20054;-62
2021/08/28 08:23:51;;;;;;;5.28;3.50;;;18.60;96.60;;;;;;5073700;28;20020;-62
2021/08/28 08:29:11;;;;;;;9.70;3.60;;;18.80;95.90;;;;;;5064432;28;20037;-62
2021/08/28 08:31:37;;;;;;;7.05;3.35;;;18.80;95.50;;;;;;5074994;28;20494;-62
2021/08/28 08:34:02;;;;;;;5.78;3.45;;;18.80;95.10;;;;;;5056472;28;20020;-62
2021/08/28 08:36:28;;;;;;;7.55;2.97;;;18.80;95.00;;;;;;5074676;28;20020;-62
2021/08/28 08:38:54;;;;;;;5.15;3.45;;;18.90;95.00;;;;;;5074424;28;20055;-62
2021/08/28 08:41:23;;;;;;;5.30;3.00;;;18.90;94.80;;;;;;5074428;28;20035;-62
2021/08/28 08:43:49;;;;;;;6.25;3.60;;;18.90;94.70;;;;;;5074892;28;20096;-62
2021/08/28 08:46:15;;;;;;;5.00;3.33;;;19.00;94.30;;;;;;5055618;28;20100;-62
2021/08/28 08:48:41;;;;;;;7.75;3.65;;;19.00;94.10;;;;;;5074737;28;20024;-62
2021/08/28 08:51:08;;;;;;;7.38;3.30;;;19.00;93.90;;;;;;5074542;28;20020;-62
2021/08/28 08:53:35;;;;;;;7.15;3.08;;;19.00;93.90;;;;;;5073557;28;20136;-62
2021/08/28 08:56:01;;;;;;;4.70;3.08;;;19.10;93.90;;;;;;5074826;28;20056;-62
2021/08/28 08:58:29;;;;;;;8.82;3.53;;;19.10;93.70;;;;;;5056275;28;20440;-63
2021/08/28 09:00:55;;;;;;;5.03;2.97;;;19.10;93.40;;;;;;5072723;28;20086;-62
2021/08/28 09:03:41;;;;;;;8.15;3.05;;;19.10;93.40;;;;;;5055884;28;20463;-62
2021/08/28 09:06:06;;;;;;;6.03;3.60;;;19.20;93.30;;;;;;5055847;28;20248;-62
2021/08/28 09:08:32;;;;;;;4.78;3.28;;;19.30;93.20;;;;;;5074180;28;20541;-62
2021/08/28 09:10:57;;;;;;;6.05;3.38;;;19.30;93.00;;;;;;5074026;28;20070;-62
2021/08/28 09:13:24;;;;;;;5.45;3.10;;;19.40;92.40;;;;;;5072605;28;20400;-62
2021/08/28 09:15:55;;;;;;;5.93;3.03;;;19.50;92.30;;;;;;5055919;28;20017;-63
2021/08/28 09:18:22;;;;;;;6.07;3.53;;;19.50;92.10;;;;;;5072472;28;20384;-62
2021/08/28 09:20:47;;;;;;;5.47;3.38;;;19.60;92.10;;;;;;5055666;28;20071;-63
2021/08/28 09:23:15;;;;;;;5.28;3.05;;;19.60;91.90;;;;;;5055739;28;20039;-62
2021/08/28 09:25:43;;;;;;;8.38;3.50;;;19.70;91.80;;;;;;5055585;28;20468;-63
2021/08/28 09:28:11;;;;;;;6.80;3.25;;;19.80;91.60;;;;;;5073619;28;20016;-62
2021/08/28 09:30:39;;;;;;;5.25;2.85;;;19.90;91.10;;;;;;5055650;28;20052;-62
2021/08/28 09:33:06;;;;;;;4.03;3.05;;;20.00;91.10;;;;;;5055633;28;20020;-63
2021/08/28 09:35:38;;;;;;;7.10;3.10;;;20.20;91.00;;;;;;5055433;28;20462;-62
2021/08/28 09:38:10;;;;;;;4.57;2.92;;;20.30;90.60;;;;;;5073705;28;20024;-63
2021/08/28 09:40:38;;;;;;;6.70;3.10;;;20.30;90.10;;;;;;5073356;28;20032;-62
2021/08/28 09:43:11;;;;;;;6.97;3.53;;;20.30;88.70;;;;;;5055819;28;20455;-62
2021/08/28 09:45:37;;;;;;;6.40;3.22;;;20.30;88.10;;;;;;5073838;28;20422;-63
2021/08/28 09:48:07;;;;;;;4.03;2.95;;;20.30;88.20;;;;;;5074027;28;20032;-62
2021/08/28 09:50:36;;;;;;;5.65;2.90;;;20.40;88.20;;;;;;5055766;28;20050;-62
2021/08/28 09:53:05;;;;;;;4.57;2.50;;;20.50;88.40;;;;;;5073432;28;20505;-62
2021/08/28 09:55:33;;;;;;;4.38;2.67;;;20.60;88.70;;;;;;5070200;28;20508;-63
2021/08/28 09:58:31;;;;;;;5.97;2.88;;;20.70;88.40;;;;;;5055430;28;20035;-63
2021/08/28 10:01:25;;;;;;;3.72;2.55;;;20.70;86.70;;;;;;5073356;28;20082;-63
2021/08/28 10:03:57;;;;;;;5.65;3.05;;;20.80;86.10;;;;;;5059341;28;20032;-63
2021/08/28 10:06:43;;;;;;;3.80;2.65;;;20.90;85.30;;;;;;5055229;28;20491;-63
2021/08/28 10:09:09;;;;;;;3.58;2.58;;;21.00;85.50;;;;;;5055184;28;20094;-63
2021/08/28 10:11:51;;;;;;;6.15;2.88;;;21.30;85.50;;;;;;5072475;28;20488;-63
2021/08/28 10:14:19;;;;;;;4.43;3.17;;;21.50;84.80;;;;;;5072670;28;20056;-63
2021/08/28 10:16:47;;;;;;;5.80;2.47;;;21.60;84.60;;;;;;5072659;28;20025;-64
2021/08/28 10:19:17;;;;;;;5.13;3.42;;;21.70;83.80;;;;;;5054683;28;20021;-63
2021/08/28 10:22:02;;;;;;;6.20;2.75;;;21.70;82.20;;;;;;5053842;28;20025;-63
2021/08/28 10:24:28;;;;;;;4.57;2.80;;;21.70;81.70;;;;;;5072516;28;20082;-63
2021/08/28 10:26:54;;;;;;;4.13;2.50;;;21.70;80.70;;;;;;5072442;28;20031;-63
2021/08/28 10:29:20;;;;;;;4.70;2.80;;;21.80;80.70;;;;;;5054550;28;20017;-63
2021/08/28 10:31:47;;;;;;;4.20;2.92;;;21.90;80.30;;;;;;5054298;28;20021;-63
2021/08/28 10:34:14;;;;;;;3.83;2.67;;;22.10;79.30;;;;;;5072404;28;20036;-63
2021/08/28 10:36:39;;;;;;;4.00;2.42;;;22.20;78.20;;;;;;5072081;28;20019;-63
2021/08/28 10:39:06;;;;;;;3.72;2.33;;;22.30;77.80;;;;;;5070987;28;20388;-63
2021/08/28 10:41:55;;;;;;;;;;;;;;;;;;;;;
2021/08/28 10:44:21;;;;;;;6.40;2.83;;;22.40;77.00;;;;;;5071869;28;20013;-63
2021/08/28 10:46:47;;;;;;;3.85;2.80;;;22.40;77.10;;;;;;5072285;28;20020;-63
2021/08/28 10:49:13;;;;;;;3.25;2.10;;;22.30;76.90;;;;;;5070005;28;20020;-63
2021/08/28 10:51:40;;;;;;;3.47;2.22;;;22.50;77.30;;;;;;5071796;28;20016;-63
2021/08/28 10:54:40;;;;;;;;;;;;;;;;;;;;;
2021/08/28 10:57:19;;;;;;;3.10;2.10;;;23.10;74.50;;;;;;5072439;28;20027;-63
2021/08/28 10:59:45;;;;;;;3.75;2.30;;;23.10;73.10;;;;;;5072710;28;20033;-63
2021/08/28 11:02:15;;;;;;;3.00;1.83;;;22.90;72.20;;;;;;5072380;28;20020;-63
2021/08/28 11:04:47;;;;;;;3.45;2.00;;;22.70;72.30;;;;;;5054523;28;20082;-63
2021/08/28 11:07:19;;;;;;;2.88;1.67;;;22.60;72.10;;;;;;5072478;28;20091;-63
2021/08/28 11:10:10;;;;;;;3.05;2.13;;;22.40;72.20;;;;;;5059404;28;20380;-63
2021/08/28 11:13:03;;;;;;;3.75;1.65;;;22.40;72.60;;;;;;5078884;28;20056;-63
2021/08/28 11:15:31;;;;;;;2.55;1.70;;;22.30;72.60;;;;;;5075297;28;20039;-63
2021/08/28 11:18:04;;;;;;;3.13;2.00;;;22.20;72.50;;;;;;5078627;28;20574;-63
2021/08/28 11:20:41;;;;;;;4.35;1.83;;;22.10;72.40;;;;;;5060442;28;20024;-63
2021/08/28 11:23:13;;;;;;;6.35;2.38;;;22.10;72.70;;;;;;5078442;28;20048;-63
2021/08/28 11:25:42;;;;;;;3.20;2.13;;;22.20;72.50;;;;;;5074599;28;20028;-63
2021/08/28 11:28:08;;;;;;;3.50;2.20;;;22.20;73.00;;;;;;5060593;28;20023;-63
2021/08/28 11:31:03;;;;;;;3.65;2.00;;;22.20;73.20;;;;;;5078479;28;20036;-62
2021/08/28 11:33:33;;;;;;;5.88;3.20;;;22.30;73.40;;;;;;5059570;28;20032;-63
2021/08/28 11:36:05;;;;;;;4.40;2.08;;;22.30;73.40;;;;;;5078432;28;20374;-63
2021/08/28 11:38:54;;;;;;;4.32;2.13;;;22.30;73.10;;;;;;5078564;28;20032;-63
2021/08/28 11:41:24;;;;;;;3.97;2.30;;;22.40;73.50;;;;;;5078344;28;20477;-63
2021/08/28 11:43:52;;;;;;;2.40;1.52;;;22.50;73.60;;;;;;5078446;28;20040;-63
2021/08/28 11:46:23;;;;;;;3.80;2.03;;;22.70;74.50;;;;;;5078171;28;20096;-63
2021/08/28 11:48:52;;;;;;;4.95;2.47;;;22.90;73.60;;;;;;5078582;28;20500;-63
2021/08/28 11:51:33;;;;;;;5.00;2.35;;;23.00;72.90;;;;;;5078250;28;20602;-62
2021/08/28 11:54:18;;;;;;;2.85;2.50;;;23.00;72.40;;;;;;5059543;28;20094;-63
2021/08/28 11:56:43;;;;;;;5.20;2.47;;;23.30;72.40;;;;;;5078401;28;20498;-62
2021/08/28 11:59:09;;;;;;;3.65;2.25;;;23.40;71.10;;;;;;5078499;28;20029;-63
2021/08/28 12:01:42;;;;;;;3.67;2.20;;;23.60;70.90;;;;;;5078373;28;20039;-63
2021/08/28 12:04:13;;;;;;;3.05;2.10;;;23.90;70.30;;;;;;5060381;28;20450;-63
2021/08/28 12:06:40;;;;;;;3.80;2.25;;;24.40;69.20;;;;;;5060294;28;20028;-63
2021/08/28 12:09:08;;;;;;;4.30;2.45;;;24.20;69.00;;;;;;5078470;28;20032;-63
2021/08/28 12:11:35;;;;;;;4.05;1.98;;;24.00;69.60;;;;;;5060764;28;20029;-63
2021/08/28 12:14:03;;;;;;;3.45;1.88;;;23.80;69.70;;;;;;5078475;28;20557;-63
2021/08/28 12:16:34;;;;;;;4.32;2.20;;;23.70;70.10;;;;;;5078472;28;20052;-63
2021/08/28 12:19:07;;;;;;;2.92;1.60;;;23.60;70.40;;;;;;5076314;28;20055;-63
2021/08/28 12:21:40;;;;;;;6.60;2.08;;;23.40;70.40;;;;;;5057391;28;20086;-63
2021/08/28 12:24:11;;;;;;;3.67;1.88;;;23.20;70.30;;;;;;5075018;28;20016;-63
2021/08/28 12:27:15;;;;;;;3.42;1.90;;;23.10;70.30;;;;;;5075161;28;20017;-63
2021/08/28 12:29:50;;;;;;;4.25;1.88;;;23.00;70.20;;;;;;5050896;28;20047;-62
2021/08/28 12:32:17;;;;;;;3.50;1.60;;;22.90;70.60;;;;;;5056998;28;20025;-63
2021/08/28 12:34:45;;;;;;;4.72;2.25;;;23.20;70.50;;;;;;5057325;28;20074;-63
2021/08/28 12:37:21;;;;;;;2.58;1.85;;;23.50;70.30;;;;;;5064795;28;20120;-63
2021/08/28 12:39:51;;;;;;;3.85;1.95;;;23.80;69.50;;;;;;5074162;28;20032;-62
2021/08/28 12:42:36;;;;;;;3.25;2.10;;;23.80;69.00;;;;;;5074221;28;20043;-63
2021/08/28 12:52:02;;;;;;;3.58;1.98;;;23.80;69.00;;;;;;4881919;29;20031;-63
2021/08/28 12:54:36;;;;;;;2.78;1.50;;;23.60;69.50;;;;;;4935184;29;20055;-63
2021/08/28 12:57:11;;;;;;;4.05;2.05;;;23.40;69.90;;;;;;4935346;29;20055;-63
2021/08/28 13:00:05;;;;;;;4.00;2.42;;;23.10;70.40;;;;;;5027964;28;20538;-63
2021/08/28 13:02:33;;;;;;;4.50;2.08;;;22.70;72.70;;;;;;5073088;28;20067;-63
2021/08/28 13:05:00;;;;;;;4.00;2.75;;;22.20;75.20;;;;;;5055214;28;20016;-63
2021/08/28 13:07:28;;;;;;;3.95;1.70;;;21.90;76.70;;;;;;5055605;28;20419;-63